createdAt,value
2023-01-20T13:55:44.226Z,9.02
2023-01-20T13:58:32.049Z,12.70
2023-01-20T14:01:00.513Z,13.18
2023-01-20T14:03:35.164Z,14.95
2023-01-20T14:06:14.232Z,12.57
2023-01-20T14:08:53.537Z,12.77
2023-01-20T14:11:24.148Z,11.70
2023-01-20T14:13:59.598Z,12.50
2023-01-20T14:16:28.453Z,8.10
2023-01-20T14:18:59.026Z,14.90
2023-01-20T14:21:29.754Z,14.93
2023-01-20T14:23:57.450Z,9.57
2023-01-20T14:26:30.215Z,14.80
2023-01-20T14:29:00.028Z,13.07
2023-01-20T14:31:46.202Z,15.70
2023-01-20T14:34:33.146Z,20.02
2023-01-20T14:37:20.244Z,14.93
2023-01-20T14:39:51.697Z,17.17
2023-01-20T14:42:20.999Z,15.43
2023-01-20T14:44:53.062Z,11.70
2023-01-20T14:47:22.288Z,16.55
2023-01-20T14:49:51.913Z,18.40
2023-01-20T14:52:26.490Z,17.25
2023-01-20T14:54:56.488Z,15.10
2023-01-20T14:57:26.645Z,13.73
2023-01-20T15:00:12.013Z,13.88
2023-01-20T15:02:42.706Z,17.38
2023-01-20T15:05:31.402Z,14.00
2023-01-20T15:08:18.813Z,14.02
2023-01-20T15:10:46.511Z,11.95
2023-01-20T15:13:31.241Z,13.80
2023-01-20T15:16:16.669Z,6.82
2023-01-20T15:19:17.607Z,13.13
2023-01-20T15:21:50.656Z,18.85
2023-01-20T15:24:23.033Z,15.07
2023-01-20T15:26:53.045Z,12.85
2023-01-20T15:29:27.778Z,15.40
2023-01-20T15:31:58.878Z,16.13
2023-01-20T15:34:30.614Z,16.67
2023-01-20T15:36:57.941Z,13.35
2023-01-20T15:39:30.389Z,16.55
2023-01-20T15:41:58.276Z,12.18
2023-01-20T15:44:26.383Z,19.17
2023-01-20T15:46:57.136Z,15.32
2023-01-20T15:49:25.680Z,17.10
2023-01-20T15:51:53.066Z,15.90
2023-01-20T15:54:20.159Z,16.20
2023-01-20T15:56:47.524Z,20.33
2023-01-20T15:59:22.669Z,18.50
2023-01-20T16:01:50.480Z,22.20
2023-01-20T16:04:17.601Z,20.38
2023-01-20T16:06:44.893Z,14.90
2023-01-20T16:09:25.349Z,19.73
2023-01-20T16:11:52.895Z,20.45
2023-01-20T16:14:19.723Z,18.40
2023-01-20T16:16:46.791Z,22.48
2023-01-20T16:19:14.626Z,19.55
2023-01-20T16:21:43.741Z,14.93
2023-01-20T16:24:12.576Z,14.70
2023-01-20T16:26:39.613Z,13.23
2023-01-20T16:29:06.375Z,17.17
2023-01-20T16:31:33.947Z,21.25
2023-01-20T16:34:00.868Z,21.17
2023-01-20T16:36:28.007Z,21.73
2023-01-20T16:38:55.328Z,19.52
2023-01-20T16:41:31.074Z,19.52
2023-01-20T16:43:58.524Z,19.27
2023-01-20T16:46:29.833Z,18.17
2023-01-20T16:49:01.861Z,20.10
2023-01-20T16:51:29.597Z,21.50
2023-01-20T16:53:57.510Z,17.75
2023-01-20T16:56:29.448Z,20.13
2023-01-20T16:58:58.134Z,21.63
2023-01-20T17:01:25.947Z,19.05
2023-01-20T17:03:55.214Z,17.48
2023-01-20T17:06:25.203Z,26.50
2023-01-20T17:08:54.370Z,18.48
2023-01-20T17:11:27.221Z,20.15
2023-01-20T17:13:54.944Z,19.23
2023-01-20T17:16:22.781Z,22.70
2023-01-20T17:18:51.280Z,20.98
2023-01-20T17:21:22.063Z,18.75
2023-01-20T17:23:53.320Z,22.67
2023-01-20T17:26:21.252Z,21.95
2023-01-20T17:28:48.552Z,21.60
2023-01-20T17:31:15.365Z,18.17
2023-01-20T17:33:46.572Z,20.92
2023-01-20T17:36:13.460Z,23.95
2023-01-20T17:38:40.266Z,24.65
2023-01-20T17:41:07.845Z,21.63
2023-01-20T17:43:40.125Z,23.83
2023-01-20T17:46:14.808Z,23.00
2023-01-20T17:48:41.960Z,24.40
2023-01-20T17:51:14.166Z,25.63
2023-01-20T17:53:41.195Z,26.05
2023-01-20T17:56:12.868Z,24.63
2023-01-20T17:58:41.806Z,23.92
2023-01-20T18:01:29.602Z,32.38
2023-01-20T18:03:58.730Z,28.38
2023-01-20T18:06:27.083Z,23.13
2023-01-20T18:08:56.194Z,22.33
2023-01-20T18:11:27.030Z,24.65
2023-01-20T18:13:55.687Z,22.55
2023-01-20T18:16:24.499Z,22.70
2023-01-20T18:18:51.319Z,24.40
2023-01-20T18:21:23.319Z,26.60
2023-01-20T18:23:51.388Z,26.95
2023-01-20T18:26:20.779Z,26.58
2023-01-20T18:28:47.955Z,23.77
2023-01-20T18:31:19.673Z,26.52
2023-01-20T18:34:00.338Z,26.70
2023-01-20T18:36:30.291Z,23.75
2023-01-20T18:38:59.371Z,27.20
2023-01-20T18:41:31.090Z,31.83
2023-01-20T18:43:58.177Z,21.77
2023-01-20T18:46:26.122Z,24.00
2023-01-20T18:48:54.573Z,21.20
2023-01-20T18:51:23.943Z,23.38
2023-01-20T18:53:59.249Z,23.20
2023-01-20T18:56:27.389Z,24.10
2023-01-20T18:58:55.258Z,17.77
2023-01-20T19:01:25.015Z,20.88
2023-01-20T19:03:52.311Z,23.20
2023-01-20T19:06:21.791Z,20.02
2023-01-20T19:08:48.808Z,21.02
2023-01-20T19:11:18.567Z,16.10
2023-01-20T19:13:46.802Z,24.88
2023-01-20T19:16:13.651Z,22.65
2023-01-20T19:18:41.482Z,20.45
2023-01-20T19:21:15.057Z,17.02
2023-01-20T19:23:43.232Z,22.50
2023-01-20T19:26:13.713Z,20.50
2023-01-20T19:28:40.999Z,16.83
2023-01-20T19:31:16.479Z,21.98
2023-01-20T19:33:48.518Z,22.10
2023-01-20T19:36:17.152Z,22.00
2023-01-20T19:38:44.636Z,24.33
2023-01-20T19:41:15.705Z,21.67
2023-01-20T19:43:43.250Z,21.05
2023-01-20T19:46:20.290Z,22.65
2023-01-20T19:48:47.045Z,24.08
2023-01-20T19:51:22.216Z,23.55
2023-01-20T19:53:52.201Z,23.38
2023-01-20T19:56:20.035Z,23.63
2023-01-20T19:58:47.689Z,23.95
2023-01-20T20:01:26.292Z,24.35
2023-01-20T20:03:56.403Z,20.95
2023-01-20T20:06:36.807Z,21.70
2023-01-20T20:09:10.787Z,23.23
2023-01-20T20:11:38.038Z,19.92
2023-01-20T20:14:06.841Z,23.80
2023-01-20T20:16:35.439Z,22.40
2023-01-20T20:19:02.756Z,20.55
2023-01-20T20:21:29.475Z,22.17
2023-01-20T20:23:59.170Z,19.55
2023-01-20T20:26:30.134Z,22.98
2023-01-20T20:28:58.889Z,24.17
2023-01-20T20:31:31.488Z,26.70
2023-01-20T20:33:59.147Z,22.02
2023-01-20T20:36:31.080Z,27.05
2023-01-20T20:38:59.154Z,23.15
2023-01-20T20:41:28.887Z,22.42
2023-01-20T20:43:56.159Z,21.05
2023-01-20T20:46:24.079Z,19.85
2023-01-20T20:48:54.567Z,26.17
2023-01-20T20:51:23.711Z,23.80
2023-01-20T20:53:54.052Z,24.08
2023-01-20T20:56:20.976Z,22.05
2023-01-20T20:59:00.466Z,23.58
2023-01-20T21:01:30.176Z,19.85
2023-01-20T21:03:57.894Z,19.92
2023-01-20T21:06:25.461Z,25.35
2023-01-20T21:08:52.830Z,26.25
2023-01-20T21:11:22.321Z,19.33
2023-01-20T21:13:49.411Z,20.58
2023-01-20T21:16:20.684Z,20.13
2023-01-20T21:18:48.328Z,22.10
2023-01-20T21:21:22.092Z,21.65
2023-01-20T21:23:51.061Z,20.13
2023-01-20T21:26:17.954Z,21.67
2023-01-20T21:28:45.444Z,19.30
2023-01-20T21:31:14.318Z,26.00
2023-01-20T21:33:42.686Z,23.98
2023-01-20T21:36:12.303Z,18.95
2023-01-20T21:38:41.478Z,19.85
2023-01-20T21:41:12.397Z,20.10
2023-01-20T21:43:59.817Z,22.25
2023-01-20T21:46:38.685Z,19.83
2023-01-20T21:49:25.793Z,21.77
2023-01-20T21:52:11.254Z,18.10
2023-01-20T21:54:39.783Z,22.10
2023-01-20T21:57:06.992Z,18.90
2023-01-20T21:59:33.672Z,22.92
2023-01-20T22:02:00.414Z,22.50
2023-01-20T22:04:27.157Z,22.52
2023-01-20T22:06:53.853Z,16.95
2023-01-20T22:09:20.610Z,20.20
2023-01-20T22:11:47.406Z,19.70
2023-01-20T22:14:14.093Z,17.83
2023-01-20T22:16:40.925Z,19.85
2023-01-20T22:19:07.598Z,20.35
2023-01-20T22:21:34.325Z,17.55
2023-01-20T22:24:03.669Z,18.92
2023-01-20T22:26:30.417Z,20.17
2023-01-20T22:28:57.322Z,18.90
2023-01-20T22:31:24.863Z,12.90
2023-01-20T22:33:56.930Z,20.35
2023-01-20T22:36:24.679Z,15.90
2023-01-20T22:38:52.864Z,17.08
2023-01-20T22:41:20.281Z,18.25
2023-01-20T22:43:47.995Z,13.93
2023-01-20T22:46:17.020Z,14.45
2023-01-20T22:48:44.244Z,16.42
2023-01-20T22:51:13.395Z,19.05
2023-01-20T22:53:41.112Z,18.23
2023-01-20T22:56:13.274Z,16.60
2023-01-20T22:58:40.935Z,15.50
2023-01-20T23:01:14.440Z,19.15
2023-01-20T23:03:41.911Z,25.70
2023-01-20T23:06:09.683Z,18.98
2023-01-20T23:08:37.004Z,17.95
2023-01-20T23:11:07.945Z,13.38
2023-01-20T23:13:35.300Z,20.80
2023-01-20T23:16:04.840Z,18.88
2023-01-20T23:18:32.655Z,17.77
2023-01-20T23:20:59.928Z,19.58
2023-01-20T23:23:27.659Z,19.52
2023-01-20T23:26:05.933Z,19.40
2023-01-20T23:28:32.813Z,21.55
2023-01-20T23:31:04.753Z,19.52
2023-01-20T23:33:31.717Z,19.30
2023-01-20T23:36:16.993Z,21.08
2023-01-20T23:38:44.501Z,17.55
2023-01-20T23:41:12.069Z,16.58
2023-01-20T23:43:39.065Z,16.83
2023-01-20T23:46:06.696Z,18.88
2023-01-20T23:48:34.503Z,19.63
2023-01-20T23:51:02.035Z,19.10
2023-01-20T23:53:31.251Z,20.50
2023-01-20T23:56:02.781Z,22.20
2023-01-20T23:58:29.882Z,16.40
